Time,TemperatureF,DewpointF,PressureIn,WindDirection,WindDirectionDegrees,WindSpeedMPH,WindSpeedGustMPH,Humidity,HourlyPrecipIn,Conditions,Clouds,dailyrainin,SoftwareType,DateUTC
2013-02-20 00:05:00,35.0,32.0,-100.00,NNE,13,3.0,-999.0,91,0.00,,,-99.99,,2013-02-20 08:05:00,
2013-02-20 00:11:00,35.0,33.0,-100.00,NNE,13,3.0,6.0,91,0.00,,,-99.99,,2013-02-20 08:11:00,
2013-02-20 00:21:00,35.0,33.0,-100.00,NNE,13,3.0,6.0,91,0.00,,,-99.99,,2013-02-20 08:21:00,
2013-02-20 00:31:00,35.0,33.0,-100.00,NNE,13,3.0,6.0,91,0.00,,,-99.99,,2013-02-20 08:31:00,
2013-02-20 00:41:00,35.0,33.0,-100.00,NNE,13,3.0,6.0,91,0.00,,,-99.99,,2013-02-20 08:41:00,
2013-02-20 01:01:00,34.0,33.0,-100.00,NNW,340,1.0,-999.0,94,0.00,,,-99.99,,2013-02-20 09:01:00,
2013-02-20 01:11:00,34.0,33.0,-100.00,NNW,340,1.0,2.0,94,0.00,,,-99.99,,2013-02-20 09:11:00,
2013-02-20 01:21:00,34.0,33.0,-100.00,NNW,340,1.0,2.0,94,0.00,,,-99.99,,2013-02-20 09:21:00,
2013-02-20 01:31:00,34.0,33.0,-100.00,NNW,340,1.0,2.0,94,0.00,,,-99.99,,2013-02-20 09:31:00,
2013-02-20 01:41:00,34.0,33.0,-100.00,NNW,340,1.0,2.0,94,0.00,,,-99.99,,2013-02-20 09:41:00,
2013-02-20 02:01:00,34.0,33.0,-100.00,WNW,297,1.0,-999.0,94,0.00,,,-99.99,,2013-02-20 10:01:00,
2013-02-20 02:12:00,34.0,33.0,-100.00,WNW,297,1.0,4.0,94,0.00,,,-99.99,,2013-02-20 10:12:00,
2013-02-20 02:21:00,34.0,33.0,-100.00,WNW,297,1.0,4.0,94,0.00,,,-99.99,,2013-02-20 10:21:00,
2013-02-20 02:31:00,34.0,33.0,-100.00,WNW,297,1.0,4.0,94,0.00,,,-99.99,,2013-02-20 10:31:00,
2013-02-20 02:41:00,34.0,33.0,-100.00,WNW,297,1.0,4.0,94,0.00,,,-99.99,,2013-02-20 10:41:00,
2013-02-20 03:02:00,33.0,32.0,-100.00,NNE,25,2.0,-999.0,96,0.00,,,-99.99,,2013-02-20 11:02:00,
2013-02-20 03:11:00,33.0,32.0,-100.00,NNE,25,2.0,4.0,96,0.00,,,-99.99,,2013-02-20 11:11:00,
2013-02-20 03:21:00,33.0,32.0,-100.00,NNE,25,2.0,4.0,96,0.00,,,-99.99,,2013-02-20 11:21:00,
2013-02-20 03:31:00,33.0,32.0,-100.00,NNE,25,2.0,4.0,96,0.00,,,-99.99,,2013-02-20 11:31:00,
2013-02-20 03:41:00,33.0,32.0,-100.00,NNE,25,2.0,4.0,96,0.00,,,-99.99,,2013-02-20 11:41:00,
2013-02-20 04:01:00,34.0,32.0,-100.00,NNE,16,1.0,-999.0,95,0.00,,,-99.99,,2013-02-20 12:01:00,
2013-02-20 04:12:00,34.0,33.0,-100.00,NNE,16,1.0,3.0,95,0.00,,,-99.99,,2013-02-20 12:12:00,
2013-02-20 04:21:00,34.0,33.0,-100.00,NNE,16,1.0,3.0,95,0.00,,,-99.99,,2013-02-20 12:21:00,
2013-02-20 04:31:00,34.0,33.0,-100.00,NNE,16,1.0,3.0,95,0.00,,,-99.99,,2013-02-20 12:31:00,
2013-02-20 04:41:00,34.0,33.0,-100.00,NNE,16,1.0,3.0,95,0.00,,,-99.99,,2013-02-20 12:41:00,
2013-02-20 05:01:00,33.0,32.0,-100.00,NNE,21,2.0,-999.0,95,0.00,,,-99.99,,2013-02-20 13:01:00,
2013-02-20 05:11:00,33.0,32.0,-100.00,NNE,21,2.0,4.0,95,0.00,,,-99.99,,2013-02-20 13:11:00,
2013-02-20 05:22:00,33.0,32.0,-100.00,NNE,21,2.0,4.0,95,0.00,,,-99.99,,2013-02-20 13:22:00,
2013-02-20 05:31:00,33.0,32.0,-100.00,NNE,21,2.0,4.0,95,0.00,,,-99.99,,2013-02-20 13:31:00,
2013-02-20 05:42:00,33.0,32.0,-100.00,NNE,21,2.0,4.0,95,0.00,,,-99.99,,2013-02-20 13:42:00,
2013-02-20 06:01:00,33.0,32.0,-100.00,NNE,18,2.0,-999.0,96,0.00,,,-99.99,,2013-02-20 14:01:00,
2013-02-20 06:11:00,33.0,32.0,-100.00,NNE,18,2.0,4.0,96,0.00,,,-99.99,,2013-02-20 14:11:00,
2013-02-20 06:21:00,33.0,32.0,-100.00,NNE,18,2.0,4.0,96,0.00,,,-99.99,,2013-02-20 14:21:00,
2013-02-20 06:32:00,33.0,32.0,-100.00,NNE,18,2.0,4.0,96,0.00,,,-99.99,,2013-02-20 14:32:00,
2013-02-20 06:42:00,33.0,32.0,-100.00,NNE,18,2.0,4.0,96,0.00,,,-99.99,,2013-02-20 14:42:00,
2013-02-20 07:01:00,33.0,32.0,-100.00,NNE,21,2.0,-999.0,96,0.00,,,-99.99,,2013-02-20 15:01:00,
2013-02-20 07:11:00,33.0,32.0,-100.00,NNE,21,2.0,4.0,96,0.00,,,-99.99,,2013-02-20 15:11:00,
2013-02-20 07:22:00,33.0,32.0,-100.00,NNE,21,2.0,4.0,96,0.00,,,-99.99,,2013-02-20 15:22:00,
2013-02-20 07:31:00,33.0,32.0,-100.00,NNE,21,2.0,4.0,96,0.00,,,-99.99,,2013-02-20 15:31:00,
2013-02-20 07:41:00,33.0,32.0,-100.00,NNE,21,2.0,4.0,96,0.00,,,-99.99,,2013-02-20 15:41:00,
2013-02-20 08:01:00,34.0,33.0,-100.00,NNE,13,2.0,-999.0,96,0.00,,,-99.99,,2013-02-20 16:01:00,
2013-02-20 08:11:00,34.0,33.0,-100.00,NNE,13,2.0,3.0,96,0.00,,,-99.99,,2013-02-20 16:11:00,
2013-02-20 08:21:00,34.0,33.0,-100.00,NNE,13,2.0,3.0,96,0.00,,,-99.99,,2013-02-20 16:21:00,
2013-02-20 08:32:00,34.0,33.0,-100.00,NNE,13,2.0,3.0,96,0.00,,,-99.99,,2013-02-20 16:32:00,
2013-02-20 08:41:00,34.0,33.0,-100.00,NNE,13,2.0,3.0,96,0.00,,,-99.99,,2013-02-20 16:41:00,
2013-02-20 09:01:00,38.0,36.0,-100.00,North,358,3.0,-999.0,94,0.00,,,-99.99,,2013-02-20 17:01:00,
2013-02-20 09:11:00,38.0,36.0,-100.00,North,358,3.0,5.0,94,0.00,,,-99.99,,2013-02-20 17:11:00,
2013-02-20 09:21:00,38.0,36.0,-100.00,North,358,3.0,5.0,94,0.00,,,-99.99,,2013-02-20 17:21:00,
2013-02-20 09:32:00,38.0,36.0,-100.00,North,358,3.0,5.0,94,0.00,,,-99.99,,2013-02-20 17:32:00,
2013-02-20 09:41:00,38.0,36.0,-100.00,North,358,3.0,5.0,94,0.00,,,-99.99,,2013-02-20 17:41:00,
2013-02-20 10:02:00,47.0,38.0,-100.00,South,178,4.0,-999.0,71,0.00,,,-99.99,,2013-02-20 18:02:00,
2013-02-20 10:11:00,47.0,38.0,-100.00,South,178,4.0,6.0,71,0.00,,,-99.99,,2013-02-20 18:11:00,
2013-02-20 10:21:00,47.0,38.0,-100.00,South,178,4.0,6.0,71,0.00,,,-99.99,,2013-02-20 18:21:00,
2013-02-20 10:31:00,47.0,38.0,-100.00,South,178,4.0,6.0,71,0.00,,,-99.99,,2013-02-20 18:31:00,
2013-02-20 10:41:00,47.0,38.0,-100.00,South,178,4.0,6.0,71,0.00,,,-99.99,,2013-02-20 18:41:00,
2013-02-20 11:01:00,50.0,39.0,-100.00,SSW,202,4.0,-999.0,64,0.00,,,-99.99,,2013-02-20 19:01:00,
2013-02-20 11:11:00,50.0,39.0,-100.00,SSW,202,4.0,7.0,64,0.00,,,-99.99,,2013-02-20 19:11:00,
2013-02-20 11:21:00,50.0,39.0,-100.00,SSW,202,4.0,7.0,64,0.00,,,-99.99,,2013-02-20 19:21:00,
2013-02-20 11:31:00,50.0,39.0,-100.00,SSW,202,4.0,7.0,64,0.00,,,-99.99,,2013-02-20 19:31:00,
2013-02-20 11:41:00,50.0,39.0,-100.00,SSW,202,4.0,7.0,64,0.00,,,-99.99,,2013-02-20 19:41:00,
2013-02-20 12:01:00,52.0,40.0,-100.00,SW,229,6.0,-999.0,63,0.00,,,-99.99,,2013-02-20 20:01:00,
2013-02-20 12:11:00,52.0,40.0,-100.00,SW,229,6.0,9.0,63,0.00,,,-99.99,,2013-02-20 20:11:00,
2013-02-20 12:21:00,52.0,40.0,-100.00,SW,229,6.0,9.0,63,0.00,,,-99.99,,2013-02-20 20:21:00,
2013-02-20 12:31:00,52.0,40.0,-100.00,SW,229,6.0,9.0,63,0.00,,,-99.99,,2013-02-20 20:31:00,
2013-02-20 12:41:00,52.0,40.0,-100.00,SW,229,6.0,9.0,63,0.00,,,-99.99,,2013-02-20 20:41:00,
2013-02-20 13:01:00,53.0,42.0,-100.00,SSW,203,4.0,-999.0,66,0.00,,,-99.99,,2013-02-20 21:01:00,
2013-02-20 13:11:00,53.0,42.0,-100.00,SSW,203,4.0,9.0,66,0.00,,,-99.99,,2013-02-20 21:11:00,
2013-02-20 13:21:00,53.0,42.0,-100.00,SSW,203,4.0,9.0,66,0.00,,,-99.99,,2013-02-20 21:21:00,
2013-02-20 13:31:00,53.0,42.0,-100.00,SSW,203,4.0,9.0,66,0.00,,,-99.99,,2013-02-20 21:31:00,
2013-02-20 13:41:00,53.0,42.0,-100.00,SSW,203,4.0,9.0,66,0.00,,,-99.99,,2013-02-20 21:41:00,
2013-02-20 14:01:00,55.0,41.0,-100.00,WSW,253,8.0,-999.0,59,0.00,,,-99.99,,2013-02-20 22:01:00,
2013-02-20 14:11:00,55.0,41.0,-100.00,WSW,253,8.0,-999.0,59,0.00,,,-99.99,,2013-02-20 22:11:00,
2013-02-20 14:21:00,55.0,41.0,-100.00,WSW,253,8.0,-999.0,59,0.00,,,-99.99,,2013-02-20 22:21:00,
2013-02-20 14:31:00,55.0,41.0,-100.00,WSW,253,8.0,-999.0,59,0.00,,,-99.99,,2013-02-20 22:31:00,
2013-02-20 14:41:00,55.0,41.0,-100.00,WSW,253,8.0,-999.0,59,0.00,,,-99.99,,2013-02-20 22:41:00,
2013-02-20 15:01:00,55.0,45.0,-100.00,West,267,11.0,-999.0,68,0.00,,,-99.99,,2013-02-20 23:01:00,
2013-02-20 15:12:00,55.0,45.0,-100.00,West,267,11.0,-999.0,68,0.00,,,-99.99,,2013-02-20 23:12:00,
2013-02-20 15:22:00,55.0,45.0,-100.00,West,267,11.0,-999.0,68,0.00,,,-99.99,,2013-02-20 23:22:00,
2013-02-20 15:31:00,55.0,45.0,-100.00,West,267,11.0,-999.0,68,0.00,,,-99.99,,2013-02-20 23:31:00,
2013-02-20 15:42:00,55.0,45.0,-100.00,West,267,11.0,15.0,68,0.00,,,-99.99,,2013-02-20 23:42:00,
2013-02-20 16:02:00,54.0,45.0,-100.00,West,267,10.0,-999.0,71,0.00,,,-99.99,,2013-02-21 00:02:00,
2013-02-20 16:11:00,54.0,45.0,-100.00,West,267,10.0,14.0,71,0.00,,,-99.99,,2013-02-21 00:11:00,
2013-02-20 16:21:00,54.0,45.0,-100.00,West,267,10.0,14.0,71,0.00,,,-99.99,,2013-02-21 00:21:00,
2013-02-20 16:31:00,54.0,45.0,-100.00,West,267,10.0,14.0,71,0.00,,,-99.99,,2013-02-21 00:31:00,
2013-02-20 16:41:00,54.0,45.0,-100.00,West,267,10.0,14.0,71,0.00,,,-99.99,,2013-02-21 00:41:00,
2013-02-20 17:01:00,52.0,44.0,-100.00,West,280,14.0,-999.0,74,0.00,,,-99.99,,2013-02-21 01:01:00,
2013-02-20 17:11:00,52.0,44.0,-100.00,West,280,14.0,18.0,74,0.00,,,-99.99,,2013-02-21 01:11:00,
2013-02-20 17:21:00,52.0,44.0,-100.00,West,280,14.0,18.0,74,0.00,,,-99.99,,2013-02-21 01:21:00,
2013-02-20 17:32:00,52.0,44.0,-100.00,West,280,14.0,18.0,74,0.00,,,-99.99,,2013-02-21 01:32:00,
2013-02-20 17:41:00,52.0,44.0,-100.00,West,280,14.0,18.0,74,0.00,,,-99.99,,2013-02-21 01:41:00,
2013-02-20 18:01:00,50.0,44.0,-100.00,WNW,285,13.0,-999.0,78,0.00,,,-99.99,,2013-02-21 02:01:00,
2013-02-20 18:11:00,50.0,44.0,-100.00,WNW,285,13.0,17.0,78,0.00,,,-99.99,,2013-02-21 02:11:00,
2013-02-20 18:21:00,50.0,44.0,-100.00,WNW,285,13.0,17.0,78,0.00,,,-99.99,,2013-02-21 02:21:00,
2013-02-20 18:32:00,50.0,44.0,-100.00,WNW,285,13.0,17.0,78,0.00,,,-99.99,,2013-02-21 02:32:00,
2013-02-20 18:41:00,50.0,44.0,-100.00,WNW,285,13.0,17.0,78,0.00,,,-99.99,,2013-02-21 02:41:00,
2013-02-20 19:01:00,50.0,41.0,-100.00,WNW,296,3.0,-999.0,72,0.00,,,-99.99,,2013-02-21 03:01:00,
2013-02-20 19:12:00,50.0,41.0,-100.00,WNW,296,3.0,10.0,72,0.00,,,-99.99,,2013-02-21 03:12:00,
2013-02-20 19:21:00,50.0,41.0,-100.00,WNW,296,3.0,10.0,72,0.00,,,-99.99,,2013-02-21 03:21:00,
2013-02-20 19:31:00,50.0,41.0,-100.00,WNW,296,3.0,10.0,72,0.00,,,-99.99,,2013-02-21 03:31:00,
2013-02-20 19:41:00,50.0,41.0,-100.00,WNW,296,3.0,10.0,72,0.00,,,-99.99,,2013-02-21 03:41:00,
2013-02-20 20:01:00,45.0,42.0,-100.00,ESE,113,6.0,-999.0,87,0.00,,,-99.99,,2013-02-21 04:01:00,
2013-02-20 20:11:00,45.0,42.0,-100.00,ESE,113,6.0,9.0,87,0.00,,,-99.99,,2013-02-21 04:11:00,
2013-02-20 20:21:00,45.0,42.0,-100.00,ESE,113,6.0,9.0,87,0.00,,,-99.99,,2013-02-21 04:21:00,
2013-02-20 20:31:00,45.0,42.0,-100.00,ESE,113,6.0,9.0,87,0.00,,,-99.99,,2013-02-21 04:31:00,
2013-02-20 20:41:00,45.0,42.0,-100.00,ESE,113,6.0,9.0,87,0.00,,,-99.99,,2013-02-21 04:41:00,
2013-02-20 21:02:00,45.0,41.0,-100.00,ESE,106,6.0,-999.0,88,0.00,,,-99.99,,2013-02-21 05:02:00,
2013-02-20 21:12:00,45.0,41.0,-100.00,ESE,106,6.0,-999.0,88,0.00,,,-99.99,,2013-02-21 05:12:00,
2013-02-20 21:22:00,45.0,41.0,-100.00,ESE,106,6.0,9.0,88,0.00,,,-99.99,,2013-02-21 05:22:00,
2013-02-20 21:32:00,45.0,41.0,-100.00,ESE,106,6.0,9.0,88,0.00,,,-99.99,,2013-02-21 05:32:00,
2013-02-20 21:41:00,45.0,41.0,-100.00,ESE,106,6.0,9.0,88,0.00,,,-99.99,,2013-02-21 05:41:00,
2013-02-20 22:01:00,44.0,41.0,-100.00,NE,45,3.0,-999.0,88,0.00,,,-99.99,,2013-02-21 06:01:00,
2013-02-20 22:11:00,44.0,41.0,-100.00,NE,45,3.0,-999.0,88,0.00,,,-99.99,,2013-02-21 06:11:00,
2013-02-20 22:21:00,44.0,41.0,-100.00,NE,45,3.0,-999.0,88,0.00,,,-99.99,,2013-02-21 06:21:00,
2013-02-20 22:31:00,44.0,41.0,-100.00,NE,45,3.0,-999.0,88,0.00,,,-99.99,,2013-02-21 06:31:00,
2013-02-20 22:41:00,44.0,41.0,-100.00,NE,45,3.0,-999.0,88,0.00,,,-99.99,,2013-02-21 06:41:00,
2013-02-20 23:01:00,43.0,41.0,-100.00,South,177,0.0,-999.0,90,0.00,,,-99.99,,2013-02-21 07:01:00,
2013-02-20 23:11:00,43.0,41.0,-100.00,South,177,0.0,-999.0,90,0.00,,,-99.99,,2013-02-21 07:11:00,
2013-02-20 23:21:00,43.0,41.0,-100.00,South,177,0.0,-999.0,90,0.00,,,-99.99,,2013-02-21 07:21:00,
2013-02-20 23:31:00,43.0,41.0,-100.00,South,177,0.0,0.0,90,0.00,,,-99.99,,2013-02-21 07:31:00,
2013-02-20 23:41:00,43.0,41.0,-100.00,South,177,0.0,0.0,90,0.00,,,-99.99,,2013-02-21 07:41:00,